sensor_id;sensor_type;location;lat;lon;timestamp;P1;durP1;ratioP1;P2;durP2;ratioP2
65641;SDS011;52340;-6.720;108.544;2023-12-22T00:00:39;66.95;;;44.25;;
65641;SDS011;52340;-6.720;108.544;2023-12-22T00:01:42;64.70;;;44.35;;
65641;SDS011;52340;-6.720;108.544;2023-12-22T00:02:44;70.40;;;45.53;;
65641;SDS011;52340;-6.720;108.544;2023-12-22T00:03:46;66.20;;;44.45;;
65641;SDS011;52340;-6.720;108.544;2023-12-22T00:04:48;62.63;;;42.67;;
65641;SDS011;52340;-6.720;108.544;2023-12-22T00:05:50;62.47;;;42.33;;
65641;SDS011;52340;-6.720;108.544;2023-12-22T00:06:51;67.43;;;42.45;;
65641;SDS011;52340;-6.720;108.544;2023-12-22T00:07:55;59.15;;;43.42;;
65641;SDS011;52340;-6.720;108.544;2023-12-22T00:08:57;62.30;;;41.03;;
65641;SDS011;52340;-6.720;108.544;2023-12-22T00:09:59;63.10;;;42.15;;
65641;SDS011;52340;-6.720;108.544;2023-12-22T00:11:01;65.45;;;41.88;;
65641;SDS011;52340;-6.720;108.544;2023-12-22T00:12:03;62.08;;;42.40;;
65641;SDS011;52340;-6.720;108.544;2023-12-22T00:13:05;59.78;;;42.53;;
65641;SDS011;52340;-6.720;108.544;2023-12-22T00:14:07;61.15;;;42.10;;
65641;SDS011;52340;-6.720;108.544;2023-12-22T00:15:12;67.22;;;42.50;;
65641;SDS011;52340;-6.720;108.544;2023-12-22T00:16:14;62.08;;;42.10;;
65641;SDS011;52340;-6.720;108.544;2023-12-22T00:17:17;60.42;;;40.17;;
65641;SDS011;52340;-6.720;108.544;2023-12-22T00:18:21;61.05;;;42.30;;
65641;SDS011;52340;-6.720;108.544;2023-12-22T00:19:23;58.63;;;41.63;;
65641;SDS011;52340;-6.720;108.544;2023-12-22T00:20:25;65.35;;;41.92;;
65641;SDS011;52340;-6.720;108.544;2023-12-22T00:21:27;64.25;;;41.47;;
65641;SDS011;52340;-6.720;108.544;2023-12-22T00:22:28;57.97;;;40.47;;
65641;SDS011;52340;-6.720;108.544;2023-12-22T00:23:33;57.25;;;40.25;;
65641;SDS011;52340;-6.720;108.544;2023-12-22T00:24:35;59.08;;;38.72;;
65641;SDS011;52340;-6.720;108.544;2023-12-22T00:25:36;57.92;;;36.67;;
65641;SDS011;52340;-6.720;108.544;2023-12-22T00:26:38;53.20;;;35.95;;
65641;SDS011;52340;-6.720;108.544;2023-12-22T00:27:40;51.35;;;35.95;;
65641;SDS011;52340;-6.720;108.544;2023-12-22T00:28:42;55.15;;;36.97;;
65641;SDS011;52340;-6.720;108.544;2023-12-22T00:29:44;54.28;;;36.15;;
65641;SDS011;52340;-6.720;108.544;2023-12-22T00:30:46;53.45;;;36.50;;
65641;SDS011;52340;-6.720;108.544;2023-12-22T00:31:47;53.75;;;36.70;;
65641;SDS011;52340;-6.720;108.544;2023-12-22T00:32:51;48.47;;;34.45;;
65641;SDS011;52340;-6.720;108.544;2023-12-22T00:33:53;56.45;;;36.50;;
65641;SDS011;52340;-6.720;108.544;2023-12-22T00:34:54;56.85;;;36.20;;
65641;SDS011;52340;-6.720;108.544;2023-12-22T00:35:56;53.03;;;35.33;;
65641;SDS011;52340;-6.720;108.544;2023-12-22T00:36:59;54.88;;;35.83;;
65641;SDS011;52340;-6.720;108.544;2023-12-22T00:38:04;50.40;;;32.85;;
65641;SDS011;52340;-6.720;108.544;2023-12-22T00:39:06;49.83;;;33.88;;
65641;SDS011;52340;-6.720;108.544;2023-12-22T00:40:08;47.85;;;32.67;;
65641;SDS011;52340;-6.720;108.544;2023-12-22T00:41:10;44.10;;;31.77;;
65641;SDS011;52340;-6.720;108.544;2023-12-22T00:42:12;46.90;;;31.92;;
65641;SDS011;52340;-6.720;108.544;2023-12-22T00:43:14;41.40;;;28.58;;
65641;SDS011;52340;-6.720;108.544;2023-12-22T00:44:16;46.10;;;29.10;;
65641;SDS011;52340;-6.720;108.544;2023-12-22T00:45:18;40.88;;;28.88;;
65641;SDS011;52340;-6.720;108.544;2023-12-22T00:46:22;41.15;;;28.45;;
65641;SDS011;52340;-6.720;108.544;2023-12-22T00:47:33;44.75;;;28.33;;
65641;SDS011;52340;-6.720;108.544;2023-12-22T00:48:48;41.63;;;27.48;;
65641;SDS011;52340;-6.720;108.544;2023-12-22T00:49:50;36.95;;;25.83;;
65641;SDS011;52340;-6.720;108.544;2023-12-22T00:51:01;38.83;;;26.02;;
65641;SDS011;52340;-6.720;108.544;2023-12-22T00:52:03;37.25;;;25.27;;
65641;SDS011;52340;-6.720;108.544;2023-12-22T00:53:16;34.47;;;25.23;;
65641;SDS011;52340;-6.720;108.544;2023-12-22T00:54:27;37.90;;;25.65;;
65641;SDS011;52340;-6.720;108.544;2023-12-22T00:55:31;35.08;;;23.50;;
65641;SDS011;52340;-6.720;108.544;2023-12-22T00:56:33;36.13;;;23.63;;
65641;SDS011;52340;-6.720;108.544;2023-12-22T00:57:44;31.33;;;22.85;;
65641;SDS011;52340;-6.720;108.544;2023-12-22T00:58:51;30.45;;;20.60;;
65641;SDS011;52340;-6.720;108.544;2023-12-22T00:59:56;29.52;;;21.27;;
65641;SDS011;52340;-6.720;108.544;2023-12-22T01:01:01;30.73;;;20.00;;
65641;SDS011;52340;-6.720;108.544;2023-12-22T01:02:02;29.27;;;20.08;;
65641;SDS011;52340;-6.720;108.544;2023-12-22T01:03:04;29.05;;;19.90;;
65641;SDS011;52340;-6.720;108.544;2023-12-22T01:04:08;28.10;;;20.20;;
65641;SDS011;52340;-6.720;108.544;2023-12-22T01:05:10;34.45;;;22.95;;
65641;SDS011;52340;-6.720;108.544;2023-12-22T01:06:12;32.00;;;22.42;;
65641;SDS011;52340;-6.720;108.544;2023-12-22T01:07:14;32.58;;;23.02;;
65641;SDS011;52340;-6.720;108.544;2023-12-22T01:08:15;29.52;;;21.85;;
65641;SDS011;52340;-6.720;108.544;2023-12-22T01:09:17;27.15;;;19.63;;
65641;SDS011;52340;-6.720;108.544;2023-12-22T01:10:19;25.85;;;18.10;;
65641;SDS011;52340;-6.720;108.544;2023-12-22T01:11:21;25.17;;;18.25;;
65641;SDS011;52340;-6.720;108.544;2023-12-22T01:12:27;24.10;;;17.92;;
65641;SDS011;52340;-6.720;108.544;2023-12-22T01:15:19;27.20;;;18.52;;
65641;SDS011;52340;-6.720;108.544;2023-12-22T01:17:07;27.73;;;18.95;;
65641;SDS011;52340;-6.720;108.544;2023-12-22T01:17:52;26.23;;;18.13;;
65641;SDS011;52340;-6.720;108.544;2023-12-22T01:19:07;27.65;;;18.67;;
65641;SDS011;52340;-6.720;108.544;2023-12-22T01:22:10;27.15;;;19.48;;
65641;SDS011;52340;-6.720;108.544;2023-12-22T01:23:33;28.10;;;19.30;;
65641;SDS011;52340;-6.720;108.544;2023-12-22T01:26:08;26.75;;;18.73;;
65641;SDS011;52340;-6.720;108.544;2023-12-22T01:27:18;28.80;;;20.48;;
65641;SDS011;52340;-6.720;108.544;2023-12-22T01:28:36;30.13;;;19.90;;
65641;SDS011;52340;-6.720;108.544;2023-12-22T01:31:38;30.65;;;21.02;;
65641;SDS011;52340;-6.720;108.544;2023-12-22T01:32:50;28.25;;;20.42;;
65641;SDS011;52340;-6.720;108.544;2023-12-22T01:33:52;26.42;;;19.40;;
65641;SDS011;52340;-6.720;108.544;2023-12-22T01:36:22;26.13;;;18.92;;
65641;SDS011;52340;-6.720;108.544;2023-12-22T01:37:29;31.02;;;20.52;;
65641;SDS011;52340;-6.720;108.544;2023-12-22T01:38:34;27.27;;;19.88;;
65641;SDS011;52340;-6.720;108.544;2023-12-22T01:39:36;30.58;;;21.42;;
65641;SDS011;52340;-6.720;108.544;2023-12-22T01:40:38;28.83;;;20.67;;
65641;SDS011;52340;-6.720;108.544;2023-12-22T01:41:40;31.45;;;21.08;;
65641;SDS011;52340;-6.720;108.544;2023-12-22T01:42:42;29.42;;;21.65;;
65641;SDS011;52340;-6.720;108.544;2023-12-22T01:43:43;33.60;;;22.27;;
65641;SDS011;52340;-6.720;108.544;2023-12-22T01:44:45;32.08;;;22.85;;
65641;SDS011;52340;-6.720;108.544;2023-12-22T01:45:47;31.65;;;22.98;;
65641;SDS011;52340;-6.720;108.544;2023-12-22T01:46:49;30.85;;;22.70;;
65641;SDS011;52340;-6.720;108.544;2023-12-22T01:47:51;29.67;;;21.70;;
65641;SDS011;52340;-6.720;108.544;2023-12-22T01:48:53;32.42;;;21.75;;
65641;SDS011;52340;-6.720;108.544;2023-12-22T01:49:55;31.38;;;21.88;;
65641;SDS011;52340;-6.720;108.544;2023-12-22T01:50:57;28.98;;;21.30;;
65641;SDS011;52340;-6.720;108.544;2023-12-22T01:52:01;30.95;;;20.85;;
65641;SDS011;52340;-6.720;108.544;2023-12-22T01:53:03;28.33;;;21.27;;
65641;SDS011;52340;-6.720;108.544;2023-12-22T01:54:05;32.85;;;22.08;;
65641;SDS011;52340;-6.720;108.544;2023-12-22T01:55:07;31.05;;;21.63;;
65641;SDS011;52340;-6.720;108.544;2023-12-22T01:56:11;31.90;;;21.95;;
65641;SDS011;52340;-6.720;108.544;2023-12-22T01:57:13;33.45;;;24.02;;
65641;SDS011;52340;-6.720;108.544;2023-12-22T01:58:17;32.28;;;22.73;;
65641;SDS011;52340;-6.720;108.544;2023-12-22T01:59:21;32.90;;;24.92;;
65641;SDS011;52340;-6.720;108.544;2023-12-22T02:00:24;31.30;;;23.50;;
65641;SDS011;52340;-6.720;108.544;2023-12-22T02:01:28;32.88;;;24.08;;
65641;SDS011;52340;-6.720;108.544;2023-12-22T02:02:30;35.10;;;23.80;;
65641;SDS011;52340;-6.720;108.544;2023-12-22T02:03:32;32.65;;;23.95;;
65641;SDS011;52340;-6.720;108.544;2023-12-22T02:04:34;33.95;;;24.05;;
65641;SDS011;52340;-6.720;108.544;2023-12-22T02:05:36;30.90;;;23.02;;
65641;SDS011;52340;-6.720;108.544;2023-12-22T02:06:37;33.88;;;24.65;;
65641;SDS011;52340;-6.720;108.544;2023-12-22T02:07:44;32.08;;;23.90;;
65641;SDS011;52340;-6.720;108.544;2023-12-22T02:08:47;33.08;;;23.92;;
65641;SDS011;52340;-6.720;108.544;2023-12-22T02:09:49;31.92;;;23.77;;
65641;SDS011;52340;-6.720;108.544;2023-12-22T02:10:51;32.50;;;24.02;;
65641;SDS011;52340;-6.720;108.544;2023-12-22T02:11:53;33.50;;;24.55;;
65641;SDS011;52340;-6.720;108.544;2023-12-22T02:12:54;30.55;;;23.13;;
65641;SDS011;52340;-6.720;108.544;2023-12-22T02:13:56;35.58;;;25.13;;
65641;SDS011;52340;-6.720;108.544;2023-12-22T02:14:58;31.20;;;24.48;;
65641;SDS011;52340;-6.720;108.544;2023-12-22T02:16:01;34.65;;;24.48;;
65641;SDS011;52340;-6.720;108.544;2023-12-22T02:17:07;32.15;;;24.50;;
65641;SDS011;52340;-6.720;108.544;2023-12-22T02:18:16;30.92;;;23.52;;
65641;SDS011;52340;-6.720;108.544;2023-12-22T02:19:22;33.25;;;23.85;;
65641;SDS011;52340;-6.720;108.544;2023-12-22T02:20:31;33.10;;;24.92;;
65641;SDS011;52340;-6.720;108.544;2023-12-22T02:21:36;32.13;;;23.85;;
65641;SDS011;52340;-6.720;108.544;2023-12-22T02:22:41;30.08;;;25.27;;
65641;SDS011;52340;-6.720;108.544;2023-12-22T02:23:43;30.40;;;24.27;;
65641;SDS011;52340;-6.720;108.544;2023-12-22T02:24:45;35.97;;;24.48;;
65641;SDS011;52340;-6.720;108.544;2023-12-22T02:25:46;33.22;;;24.40;;
65641;SDS011;52340;-6.720;108.544;2023-12-22T02:26:49;30.60;;;24.35;;
65641;SDS011;52340;-6.720;108.544;2023-12-22T02:27:52;33.85;;;24.80;;
65641;SDS011;52340;-6.720;108.544;2023-12-22T02:28:57;33.55;;;24.88;;
65641;SDS011;52340;-6.720;108.544;2023-12-22T02:30:02;34.20;;;24.88;;
65641;SDS011;52340;-6.720;108.544;2023-12-22T02:31:08;33.60;;;24.73;;
65641;SDS011;52340;-6.720;108.544;2023-12-22T02:32:16;35.63;;;24.55;;
65641;SDS011;52340;-6.720;108.544;2023-12-22T02:33:21;35.65;;;25.05;;
65641;SDS011;52340;-6.720;108.544;2023-12-22T02:34:24;31.63;;;24.67;;
65641;SDS011;52340;-6.720;108.544;2023-12-22T02:35:28;35.47;;;25.35;;
65641;SDS011;52340;-6.720;108.544;2023-12-22T02:36:29;33.70;;;25.08;;
65641;SDS011;52340;-6.720;108.544;2023-12-22T02:37:32;36.95;;;26.27;;
65641;SDS011;52340;-6.720;108.544;2023-12-22T02:38:38;34.90;;;26.27;;
65641;SDS011;52340;-6.720;108.544;2023-12-22T02:39:41;36.13;;;26.40;;
65641;SDS011;52340;-6.720;108.544;2023-12-22T02:40:43;36.35;;;27.08;;
65641;SDS011;52340;-6.720;108.544;2023-12-22T02:41:45;35.50;;;28.63;;
65641;SDS011;52340;-6.720;108.544;2023-12-22T02:42:47;35.53;;;28.20;;
65641;SDS011;52340;-6.720;108.544;2023-12-22T02:43:49;38.78;;;27.35;;
65641;SDS011;52340;-6.720;108.544;2023-12-22T02:44:54;37.33;;;27.60;;
65641;SDS011;52340;-6.720;108.544;2023-12-22T02:45:56;38.25;;;27.90;;
65641;SDS011;52340;-6.720;108.544;2023-12-22T02:46:58;37.70;;;27.88;;
65641;SDS011;52340;-6.720;108.544;2023-12-22T02:48:00;39.10;;;27.63;;
65641;SDS011;52340;-6.720;108.544;2023-12-22T02:49:02;37.30;;;26.45;;
65641;SDS011;52340;-6.720;108.544;2023-12-22T02:50:04;38.92;;;27.38;;
65641;SDS011;52340;-6.720;108.544;2023-12-22T02:51:06;42.92;;;28.77;;
65641;SDS011;52340;-6.720;108.544;2023-12-22T02:52:08;39.55;;;27.27;;
65641;SDS011;52340;-6.720;108.544;2023-12-22T02:53:10;37.28;;;26.65;;
65641;SDS011;52340;-6.720;108.544;2023-12-22T02:54:16;38.60;;;27.52;;
65641;SDS011;52340;-6.720;108.544;2023-12-22T02:55:19;36.92;;;26.27;;
65641;SDS011;52340;-6.720;108.544;2023-12-22T02:56:21;39.17;;;27.60;;
65641;SDS011;52340;-6.720;108.544;2023-12-22T02:57:23;40.65;;;26.65;;
65641;SDS011;52340;-6.720;108.544;2023-12-22T02:58:25;35.83;;;26.77;;
65641;SDS011;52340;-6.720;108.544;2023-12-22T02:59:28;36.05;;;26.25;;
65641;SDS011;52340;-6.720;108.544;2023-12-22T03:00:30;35.30;;;25.15;;
65641;SDS011;52340;-6.720;108.544;2023-12-22T03:01:33;32.80;;;25.08;;
65641;SDS011;52340;-6.720;108.544;2023-12-22T03:02:35;35.63;;;24.45;;
65641;SDS011;52340;-6.720;108.544;2023-12-22T03:03:37;33.33;;;24.15;;
65641;SDS011;52340;-6.720;108.544;2023-12-22T03:04:39;36.80;;;24.63;;
65641;SDS011;52340;-6.720;108.544;2023-12-22T03:05:41;32.88;;;24.73;;
65641;SDS011;52340;-6.720;108.544;2023-12-22T03:06:43;34.28;;;25.27;;
65641;SDS011;52340;-6.720;108.544;2023-12-22T03:07:45;32.42;;;24.38;;
65641;SDS011;52340;-6.720;108.544;2023-12-22T03:08:47;35.00;;;24.23;;
65641;SDS011;52340;-6.720;108.544;2023-12-22T03:09:52;29.88;;;22.75;;
65641;SDS011;52340;-6.720;108.544;2023-12-22T03:10:54;32.83;;;24.02;;
65641;SDS011;52340;-6.720;108.544;2023-12-22T03:12:03;33.17;;;23.92;;
65641;SDS011;52340;-6.720;108.544;2023-12-22T03:13:14;32.90;;;24.17;;
65641;SDS011;52340;-6.720;108.544;2023-12-22T03:14:16;34.28;;;24.02;;
65641;SDS011;52340;-6.720;108.544;2023-12-22T03:15:19;34.28;;;24.23;;
65641;SDS011;52340;-6.720;108.544;2023-12-22T03:16:21;34.80;;;24.35;;
65641;SDS011;52340;-6.720;108.544;2023-12-22T03:17:23;34.15;;;24.35;;
65641;SDS011;52340;-6.720;108.544;2023-12-22T03:18:25;31.88;;;24.52;;
65641;SDS011;52340;-6.720;108.544;2023-12-22T03:19:27;32.78;;;25.17;;
65641;SDS011;52340;-6.720;108.544;2023-12-22T03:20:29;32.10;;;24.45;;
65641;SDS011;52340;-6.720;108.544;2023-12-22T03:21:30;30.85;;;23.13;;
65641;SDS011;52340;-6.720;108.544;2023-12-22T03:22:32;34.30;;;25.17;;
65641;SDS011;52340;-6.720;108.544;2023-12-22T03:23:35;32.85;;;24.23;;
65641;SDS011;52340;-6.720;108.544;2023-12-22T03:24:37;35.35;;;24.52;;
65641;SDS011;52340;-6.720;108.544;2023-12-22T03:25:41;33.05;;;24.48;;
65641;SDS011;52340;-6.720;108.544;2023-12-22T03:26:43;33.70;;;23.88;;
65641;SDS011;52340;-6.720;108.544;2023-12-22T03:27:45;30.67;;;24.10;;
65641;SDS011;52340;-6.720;108.544;2023-12-22T03:28:47;39.83;;;25.85;;
65641;SDS011;52340;-6.720;108.544;2023-12-22T03:29:52;33.92;;;25.20;;
65641;SDS011;52340;-6.720;108.544;2023-12-22T03:30:57;37.33;;;26.05;;
65641;SDS011;52340;-6.720;108.544;2023-12-22T03:31:59;35.30;;;25.27;;
65641;SDS011;52340;-6.720;108.544;2023-12-22T03:33:00;35.50;;;25.67;;
65641;SDS011;52340;-6.720;108.544;2023-12-22T03:34:03;37.95;;;25.42;;
65641;SDS011;52340;-6.720;108.544;2023-12-22T03:35:05;32.45;;;25.08;;
65641;SDS011;52340;-6.720;108.544;2023-12-22T03:36:10;37.15;;;25.00;;
65641;SDS011;52340;-6.720;108.544;2023-12-22T03:37:12;36.35;;;25.60;;
65641;SDS011;52340;-6.720;108.544;2023-12-22T03:38:17;37.78;;;26.08;;
65641;SDS011;52340;-6.720;108.544;2023-12-22T03:39:19;35.10;;;25.63;;
65641;SDS011;52340;-6.720;108.544;2023-12-22T03:40:20;39.38;;;27.35;;
65641;SDS011;52340;-6.720;108.544;2023-12-22T03:41:24;40.80;;;28.10;;
65641;SDS011;52340;-6.720;108.544;2023-12-22T03:42:26;41.80;;;27.88;;
65641;SDS011;52340;-6.720;108.544;2023-12-22T03:43:28;41.10;;;27.70;;
65641;SDS011;52340;-6.720;108.544;2023-12-22T03:44:30;44.72;;;26.75;;
65641;SDS011;52340;-6.720;108.544;2023-12-22T03:45:33;35.92;;;26.63;;
65641;SDS011;52340;-6.720;108.544;2023-12-22T03:46:36;35.20;;;25.00;;
65641;SDS011;52340;-6.720;108.544;2023-12-22T03:47:38;36.33;;;25.88;;
65641;SDS011;52340;-6.720;108.544;2023-12-22T03:48:40;36.40;;;24.08;;
65641;SDS011;52340;-6.720;108.544;2023-12-22T03:49:41;34.50;;;24.90;;
65641;SDS011;52340;-6.720;108.544;2023-12-22T03:50:44;35.88;;;26.38;;
65641;SDS011;52340;-6.720;108.544;2023-12-22T03:51:45;38.88;;;25.75;;
65641;SDS011;52340;-6.720;108.544;2023-12-22T03:52:47;36.45;;;25.33;;
65641;SDS011;52340;-6.720;108.544;2023-12-22T03:53:49;35.90;;;25.65;;
65641;SDS011;52340;-6.720;108.544;2023-12-22T03:54:51;35.83;;;26.00;;
65641;SDS011;52340;-6.720;108.544;2023-12-22T03:55:53;34.92;;;25.13;;
65641;SDS011;52340;-6.720;108.544;2023-12-22T03:56:57;33.15;;;25.42;;
65641;SDS011;52340;-6.720;108.544;2023-12-22T03:57:58;34.50;;;24.90;;
65641;SDS011;52340;-6.720;108.544;2023-12-22T03:59:00;35.85;;;24.67;;
65641;SDS011;52340;-6.720;108.544;2023-12-22T04:00:02;34.28;;;24.40;;
65641;SDS011;52340;-6.720;108.544;2023-12-22T04:01:04;33.63;;;24.17;;
65641;SDS011;52340;-6.720;108.544;2023-12-22T04:02:06;33.97;;;24.02;;
65641;SDS011;52340;-6.720;108.544;2023-12-22T04:03:08;36.53;;;24.13;;
65641;SDS011;52340;-6.720;108.544;2023-12-22T04:04:09;33.92;;;25.17;;
65641;SDS011;52340;-6.720;108.544;2023-12-22T04:05:11;36.22;;;24.13;;
65641;SDS011;52340;-6.720;108.544;2023-12-22T04:06:13;36.92;;;25.45;;
65641;SDS011;52340;-6.720;108.544;2023-12-22T04:07:15;39.35;;;25.45;;
65641;SDS011;52340;-6.720;108.544;2023-12-22T04:08:17;42.70;;;24.88;;
65641;SDS011;52340;-6.720;108.544;2023-12-22T04:09:18;34.63;;;25.02;;
65641;SDS011;52340;-6.720;108.544;2023-12-22T04:10:20;31.65;;;24.30;;
65641;SDS011;52340;-6.720;108.544;2023-12-22T04:11:22;33.13;;;23.23;;
65641;SDS011;52340;-6.720;108.544;2023-12-22T04:12:30;32.80;;;23.50;;
65641;SDS011;52340;-6.720;108.544;2023-12-22T04:13:32;32.63;;;22.10;;
65641;SDS011;52340;-6.720;108.544;2023-12-22T04:14:34;34.00;;;24.08;;
65641;SDS011;52340;-6.720;108.544;2023-12-22T04:15:36;46.97;;;23.75;;
65641;SDS011;52340;-6.720;108.544;2023-12-22T04:16:38;32.58;;;23.27;;
65641;SDS011;52340;-6.720;108.544;2023-12-22T04:17:40;37.22;;;25.58;;
65641;SDS011;52340;-6.720;108.544;2023-12-22T04:18:41;35.85;;;25.48;;
65641;SDS011;52340;-6.720;108.544;2023-12-22T04:19:43;35.20;;;25.38;;
65641;SDS011;52340;-6.720;108.544;2023-12-22T04:20:45;36.03;;;25.70;;
65641;SDS011;52340;-6.720;108.544;2023-12-22T04:21:47;32.22;;;25.33;;
65641;SDS011;52340;-6.720;108.544;2023-12-22T04:22:49;39.08;;;26.33;;
65641;SDS011;52340;-6.720;108.544;2023-12-22T04:23:50;36.70;;;26.05;;
65641;SDS011;52340;-6.720;108.544;2023-12-22T04:24:52;37.15;;;26.27;;
65641;SDS011;52340;-6.720;108.544;2023-12-22T04:25:54;36.95;;;26.95;;
65641;SDS011;52340;-6.720;108.544;2023-12-22T04:26:59;37.75;;;27.13;;
65641;SDS011;52340;-6.720;108.544;2023-12-22T04:28:03;38.67;;;26.25;;
65641;SDS011;52340;-6.720;108.544;2023-12-22T04:29:05;36.85;;;25.90;;
65641;SDS011;52340;-6.720;108.544;2023-12-22T04:30:08;38.97;;;27.52;;
65641;SDS011;52340;-6.720;108.544;2023-12-22T04:31:10;39.67;;;26.15;;
65641;SDS011;52340;-6.720;108.544;2023-12-22T04:32:12;38.13;;;26.55;;
65641;SDS011;52340;-6.720;108.544;2023-12-22T04:33:14;36.47;;;26.35;;
65641;SDS011;52340;-6.720;108.544;2023-12-22T04:34:16;35.30;;;26.05;;
65641;SDS011;52340;-6.720;108.544;2023-12-22T04:35:17;35.20;;;26.27;;
65641;SDS011;52340;-6.720;108.544;2023-12-22T04:36:19;38.50;;;26.63;;
65641;SDS011;52340;-6.720;108.544;2023-12-22T04:37:21;39.95;;;25.65;;
65641;SDS011;52340;-6.720;108.544;2023-12-22T04:38:23;37.97;;;26.35;;
65641;SDS011;52340;-6.720;108.544;2023-12-22T04:39:25;36.40;;;26.25;;
65641;SDS011;52340;-6.720;108.544;2023-12-22T04:40:26;34.88;;;25.02;;
65641;SDS011;52340;-6.720;108.544;2023-12-22T04:41:28;35.70;;;25.45;;
65641;SDS011;52340;-6.720;108.544;2023-12-22T04:42:30;37.92;;;26.08;;
65641;SDS011;52340;-6.720;108.544;2023-12-22T04:43:34;42.45;;;27.60;;
65641;SDS011;52340;-6.720;108.544;2023-12-22T04:44:35;39.55;;;27.33;;
65641;SDS011;52340;-6.720;108.544;2023-12-22T04:45:38;39.65;;;28.40;;
65641;SDS011;52340;-6.720;108.544;2023-12-22T04:46:40;40.70;;;27.75;;
65641;SDS011;52340;-6.720;108.544;2023-12-22T04:47:42;38.53;;;28.42;;
65641;SDS011;52340;-6.720;108.544;2023-12-22T04:48:43;44.60;;;29.30;;
65641;SDS011;52340;-6.720;108.544;2023-12-22T04:49:45;43.03;;;28.73;;
65641;SDS011;52340;-6.720;108.544;2023-12-22T04:50:47;43.53;;;28.85;;
65641;SDS011;52340;-6.720;108.544;2023-12-22T04:51:49;41.67;;;28.48;;
65641;SDS011;52340;-6.720;108.544;2023-12-22T04:52:51;39.35;;;28.83;;
65641;SDS011;52340;-6.720;108.544;2023-12-22T04:53:53;38.55;;;27.65;;
65641;SDS011;52340;-6.720;108.544;2023-12-22T04:54:55;44.55;;;28.50;;
65641;SDS011;52340;-6.720;108.544;2023-12-22T04:55:56;39.80;;;27.98;;
65641;SDS011;52340;-6.720;108.544;2023-12-22T04:56:58;42.05;;;27.83;;
65641;SDS011;52340;-6.720;108.544;2023-12-22T04:58:00;38.40;;;25.90;;
65641;SDS011;52340;-6.720;108.544;2023-12-22T04:59:04;40.38;;;27.60;;
65641;SDS011;52340;-6.720;108.544;2023-12-22T05:00:06;38.78;;;27.48;;
65641;SDS011;52340;-6.720;108.544;2023-12-22T05:01:08;38.50;;;26.73;;
65641;SDS011;52340;-6.720;108.544;2023-12-22T05:02:13;39.65;;;27.15;;
65641;SDS011;52340;-6.720;108.544;2023-12-22T05:03:14;42.13;;;26.55;;
65641;SDS011;52340;-6.720;108.544;2023-12-22T05:04:16;37.97;;;26.50;;
65641;SDS011;52340;-6.720;108.544;2023-12-22T05:05:18;34.38;;;25.15;;
65641;SDS011;52340;-6.720;108.544;2023-12-22T05:06:20;38.47;;;26.17;;
65641;SDS011;52340;-6.720;108.544;2023-12-22T05:07:22;41.33;;;25.48;;
65641;SDS011;52340;-6.720;108.544;2023-12-22T05:08:24;40.55;;;27.80;;
65641;SDS011;52340;-6.720;108.544;2023-12-22T05:09:26;37.20;;;25.83;;
65641;SDS011;52340;-6.720;108.544;2023-12-22T05:10:27;41.90;;;25.95;;
65641;SDS011;52340;-6.720;108.544;2023-12-22T05:11:29;35.35;;;25.85;;
65641;SDS011;52340;-6.720;108.544;2023-12-22T05:12:31;35.65;;;26.05;;
65641;SDS011;52340;-6.720;108.544;2023-12-22T05:13:35;36.55;;;25.92;;
65641;SDS011;52340;-6.720;108.544;2023-12-22T05:14:39;36.42;;;25.75;;
65641;SDS011;52340;-6.720;108.544;2023-12-22T05:15:41;36.45;;;24.65;;
65641;SDS011;52340;-6.720;108.544;2023-12-22T05:16:43;34.15;;;24.98;;
65641;SDS011;52340;-6.720;108.544;2023-12-22T05:17:45;37.55;;;26.08;;
65641;SDS011;52340;-6.720;108.544;2023-12-22T05:18:47;43.65;;;26.48;;
65641;SDS011;52340;-6.720;108.544;2023-12-22T05:19:48;41.13;;;26.48;;
65641;SDS011;52340;-6.720;108.544;2023-12-22T05:20:50;38.50;;;26.27;;
65641;SDS011;52340;-6.720;108.544;2023-12-22T05:21:52;33.78;;;24.80;;
65641;SDS011;52340;-6.720;108.544;2023-12-22T05:22:54;35.97;;;24.80;;
65641;SDS011;52340;-6.720;108.544;2023-12-22T05:23:56;34.75;;;25.00;;
65641;SDS011;52340;-6.720;108.544;2023-12-22T05:25:00;36.47;;;25.25;;
65641;SDS011;52340;-6.720;108.544;2023-12-22T05:26:03;39.65;;;24.85;;
65641;SDS011;52340;-6.720;108.544;2023-12-22T05:27:04;39.58;;;26.27;;
65641;SDS011;52340;-6.720;108.544;2023-12-22T05:28:06;36.67;;;25.63;;
65641;SDS011;52340;-6.720;108.544;2023-12-22T05:29:08;32.83;;;24.45;;
65641;SDS011;52340;-6.720;108.544;2023-12-22T05:30:12;38.13;;;27.23;;
65641;SDS011;52340;-6.720;108.544;2023-12-22T05:31:15;39.63;;;26.42;;
65641;SDS011;52340;-6.720;108.544;2023-12-22T05:32:17;34.65;;;24.67;;
65641;SDS011;52340;-6.720;108.544;2023-12-22T05:33:19;35.50;;;25.25;;
65641;SDS011;52340;-6.720;108.544;2023-12-22T05:34:20;37.20;;;26.15;;
65641;SDS011;52340;-6.720;108.544;2023-12-22T05:35:22;36.67;;;25.35;;
65641;SDS011;52340;-6.720;108.544;2023-12-22T05:36:24;38.03;;;26.30;;
65641;SDS011;52340;-6.720;108.544;2023-12-22T05:37:26;36.70;;;25.75;;
65641;SDS011;52340;-6.720;108.544;2023-12-22T05:38:27;35.72;;;24.80;;
65641;SDS011;52340;-6.720;108.544;2023-12-22T05:39:29;33.15;;;25.30;;
65641;SDS011;52340;-6.720;108.544;2023-12-22T05:40:31;35.80;;;25.38;;
65641;SDS011;52340;-6.720;108.544;2023-12-22T05:41:33;34.38;;;25.13;;
65641;SDS011;52340;-6.720;108.544;2023-12-22T05:42:35;33.90;;;25.00;;
65641;SDS011;52340;-6.720;108.544;2023-12-22T05:43:37;35.53;;;24.48;;
65641;SDS011;52340;-6.720;108.544;2023-12-22T05:44:38;31.38;;;23.25;;
65641;SDS011;52340;-6.720;108.544;2023-12-22T05:45:42;32.88;;;23.83;;
65641;SDS011;52340;-6.720;108.544;2023-12-22T05:46:44;34.30;;;24.85;;
65641;SDS011;52340;-6.720;108.544;2023-12-22T05:47:45;35.88;;;25.20;;
65641;SDS011;52340;-6.720;108.544;2023-12-22T05:48:47;35.50;;;26.58;;
65641;SDS011;52340;-6.720;108.544;2023-12-22T05:49:51;32.63;;;24.52;;
65641;SDS011;52340;-6.720;108.544;2023-12-22T05:50:53;33.00;;;24.63;;
65641;SDS011;52340;-6.720;108.544;2023-12-22T05:51:55;32.83;;;25.17;;
65641;SDS011;52340;-6.720;108.544;2023-12-22T05:52:58;34.00;;;24.88;;
65641;SDS011;52340;-6.720;108.544;2023-12-22T05:54:03;34.78;;;24.58;;
65641;SDS011;52340;-6.720;108.544;2023-12-22T05:55:05;34.13;;;23.98;;
65641;SDS011;52340;-6.720;108.544;2023-12-22T05:56:16;35.95;;;24.23;;
65641;SDS011;52340;-6.720;108.544;2023-12-22T05:57:24;30.48;;;24.25;;
65641;SDS011;52340;-6.720;108.544;2023-12-22T05:58:29;33.47;;;23.90;;
65641;SDS011;52340;-6.720;108.544;2023-12-22T05:59:30;30.95;;;24.27;;
65641;SDS011;52340;-6.720;108.544;2023-12-22T06:00:32;32.38;;;24.25;;
65641;SDS011;52340;-6.720;108.544;2023-12-22T06:01:36;30.38;;;23.77;;
65641;SDS011;52340;-6.720;108.544;2023-12-22T06:02:37;37.92;;;24.83;;
65641;SDS011;52340;-6.720;108.544;2023-12-22T06:03:39;31.25;;;24.33;;
65641;SDS011;52340;-6.720;108.544;2023-12-22T06:04:41;34.85;;;23.52;;
65641;SDS011;52340;-6.720;108.544;2023-12-22T06:05:43;33.38;;;23.23;;
65641;SDS011;52340;-6.720;108.544;2023-12-22T06:06:45;39.35;;;23.42;;